Time;durP1;ratioP1;P1;durP2;ratioP2;P2;SDS_P1;SDS_P2;PMS_P1;PMS_P2;Temp;Humidity;BMP_temperature;BMP_pressure;BME280_temperature;BME280_humidity;BME280_pressure;Samples;Min_cycle;Max_cycle;Signal;HPM_P1;HPM_P2
2024/03/08 00:01:39;;;;;;;0.28;0.28;;;;;;;;;;4880167;29;20062;-67
2024/03/08 00:04:06;;;;;;;1.83;0.93;;;;;;;;;;4879900;29;20394;-67
2024/03/08 00:06:31;;;;;;;1.38;1.20;;;;;;;;;;4879446;29;20052;-67
2024/03/08 00:08:56;;;;;;;0.10;0.10;;;;;;;;;;4879752;29;20386;-67
2024/03/08 00:11:22;;;;;;;0.53;0.53;;;;;;;;;;4879681;29;20021;-67
2024/03/08 00:13:47;;;;;;;0.77;0.77;;;;;;;;;;4879789;29;20256;-67
2024/03/08 00:16:12;;;;;;;0.45;0.45;;;;;;;;;;4879822;29;20021;-67
2024/03/08 00:18:37;;;;;;;0.20;0.20;;;;;;;;;;4879516;29;20029;-67
2024/03/08 00:21:02;;;;;;;0.43;0.40;;;;;;;;;;4879628;29;20050;-67
2024/03/08 00:23:28;;;;;;;0.20;0.20;;;;;;;;;;4879672;29;20271;-74
2024/03/08 00:25:54;;;;;;;0.20;0.20;;;;;;;;;;4879390;29;20116;-73
2024/03/08 00:28:20;;;;;;;1.00;1.00;;;;;;;;;;4879481;29;20493;-73
2024/03/08 00:30:46;;;;;;;0.30;0.30;;;;;;;;;;4879541;29;20033;-73
2024/03/08 00:33:11;;;;;;;0.90;0.90;;;;;;;;;;4878996;29;20023;-73
2024/03/08 00:35:36;;;;;;;1.17;1.13;;;;;;;;;;4879242;29;20029;-73
2024/03/08 00:38:02;;;;;;;0.40;0.40;;;;;;;;;;4879203;29;20272;-72
2024/03/08 00:40:28;;;;;;;0.10;0.10;;;;;;;;;;4879605;29;20260;-73
2024/03/08 00:42:54;;;;;;;0.30;0.30;;;;;;;;;;4879532;29;20484;-73
2024/03/08 00:45:19;;;;;;;0.35;0.35;;;;;;;;;;4879386;29;20028;-73
2024/03/08 00:47:44;;;;;;;0.65;0.65;;;;;;;;;;4862481;29;20025;-73
2024/03/08 00:50:09;;;;;;;0.20;0.20;;;;;;;;;;4879205;29;20119;-73
2024/03/08 00:52:35;;;;;;;0.10;0.10;;;;;;;;;;4879105;29;20303;-73
2024/03/08 00:55:00;;;;;;;1.52;0.75;;;;;;;;;;4879214;29;20025;-73
2024/03/08 00:57:25;;;;;;;0.20;0.20;;;;;;;;;;4879248;29;20028;-73
2024/03/08 00:59:50;;;;;;;0.43;0.43;;;;;;;;;;4878876;29;20025;-73
2024/03/08 01:02:18;;;;;;;0.20;0.20;;;;;;;;;;4879418;29;20028;-74
2024/03/08 01:04:44;;;;;;;1.35;0.63;;;;;;;;;;4879223;29;20090;-74
2024/03/08 01:07:09;;;;;;;0.10;0.10;;;;;;;;;;4878510;29;20176;-73
2024/03/08 01:09:34;;;;;;;0.90;0.47;;;;;;;;;;4877746;29;20784;-73
2024/03/08 01:12:01;;;;;;;0.63;0.63;;;;;;;;;;4878990;29;20260;-73
2024/03/08 01:14:26;;;;;;;0.43;0.43;;;;;;;;;;4879199;29;20043;-73
2024/03/08 01:16:51;;;;;;;0.67;0.67;;;;;;;;;;4878954;29;20027;-74
2024/03/08 01:19:17;;;;;;;0.40;0.40;;;;;;;;;;4879132;29;20292;-73
2024/03/08 01:21:42;;;;;;;0.25;0.25;;;;;;;;;;4871315;29;20024;-73
2024/03/08 01:24:08;;;;;;;0.45;0.45;;;;;;;;;;4878965;29;20033;-73
2024/03/08 01:26:36;;;;;;;0.28;0.28;;;;;;;;;;4878804;29;20021;-73
2024/03/08 01:29:05;;;;;;;0.30;0.30;;;;;;;;;;4878785;29;20025;-73
2024/03/08 01:31:30;;;;;;;0.25;0.25;;;;;;;;;;4879119;29;20472;-74
2024/03/08 01:33:56;;;;;;;0.88;0.70;;;;;;;;;;4878488;29;20031;-67
2024/03/08 01:36:21;;;;;;;0.43;0.40;;;;;;;;;;4878840;29;20029;-67
2024/03/08 01:38:46;;;;;;;2.92;0.93;;;;;;;;;;4879197;29;20115;-67
2024/03/08 01:41:13;;;;;;;0.60;0.60;;;;;;;;;;4878931;29;20462;-67
2024/03/08 01:43:38;;;;;;;0.77;0.77;;;;;;;;;;4879005;29;20025;-67
2024/03/08 01:46:04;;;;;;;0.32;0.32;;;;;;;;;;4874276;29;20048;-67
2024/03/08 01:48:30;;;;;;;0.20;0.20;;;;;;;;;;4882277;29;20064;-67
2024/03/08 01:50:56;;;;;;;0.38;0.38;;;;;;;;;;4882078;29;20064;-67
2024/03/08 01:53:22;;;;;;;0.10;0.10;;;;;;;;;;4882211;29;20029;-67
2024/03/08 01:55:48;;;;;;;0.20;0.20;;;;;;;;;;4865470;29;20123;-67
2024/03/08 01:58:16;;;;;;;1.30;1.20;;;;;;;;;;4881973;29;20109;-67
2024/03/08 02:00:44;;;;;;;0.57;0.57;;;;;;;;;;4882040;29;20052;-67
2024/03/08 02:03:10;;;;;;;2.03;0.93;;;;;;;;;;4881921;29;20025;-67
2024/03/08 02:05:36;;;;;;;0.43;0.30;;;;;;;;;;4880500;29;20055;-67
2024/03/08 02:08:02;;;;;;;0.20;0.20;;;;;;;;;;4881309;29;20102;-66
2024/03/08 02:10:27;;;;;;;0.25;0.25;;;;;;;;;;4881272;29;20029;-67
2024/03/08 02:12:53;;;;;;;0.63;0.63;;;;;;;;;;4881398;29;20021;-67
2024/03/08 02:15:18;;;;;;;0.90;0.90;;;;;;;;;;4881643;29;20053;-67
2024/03/08 02:17:43;;;;;;;0.43;0.43;;;;;;;;;;4881690;29;20017;-67
2024/03/08 02:20:10;;;;;;;0.20;0.20;;;;;;;;;;4881635;29;20037;-67
2024/03/08 02:22:36;;;;;;;0.73;0.73;;;;;;;;;;4881934;29;20776;-67
2024/03/08 02:25:03;;;;;;;1.13;1.02;;;;;;;;;;4881387;29;20017;-67
2024/03/08 02:27:29;;;;;;;0.80;0.80;;;;;;;;;;4864926;29;20043;-67
2024/03/08 02:29:58;;;;;;;0.88;0.88;;;;;;;;;;4881487;29;20039;-67
2024/03/08 02:32:23;;;;;;;0.20;0.20;;;;;;;;;;4881637;29;20021;-67
2024/03/08 02:34:49;;;;;;;1.35;0.63;;;;;;;;;;4881437;29;20048;-67
2024/03/08 02:37:14;;;;;;;0.10;0.10;;;;;;;;;;4881371;29;20125;-67
2024/03/08 02:39:40;;;;;;;0.10;0.10;;;;;;;;;;4881294;29;20104;-67
2024/03/08 02:42:06;;;;;;;0.43;0.43;;;;;;;;;;4873753;29;20102;-67
2024/03/08 02:44:33;;;;;;;0.70;0.52;;;;;;;;;;4881353;29;20037;-67
2024/03/08 02:46:58;;;;;;;0.57;0.57;;;;;;;;;;4881354;29;20037;-67
2024/03/08 02:49:23;;;;;;;0.13;0.13;;;;;;;;;;4881153;29;20150;-67
2024/03/08 02:51:49;;;;;;;0.50;0.50;;;;;;;;;;4881136;29;20616;-67
2024/03/08 02:54:15;;;;;;;0.90;0.40;;;;;;;;;;4881180;29;20340;-67
2024/03/08 02:56:41;;;;;;;0.52;0.43;;;;;;;;;;4879873;29;20112;-67
2024/03/08 02:59:06;;;;;;;1.25;1.15;;;;;;;;;;4881295;29;20108;-67
2024/03/08 03:01:33;;;;;;;0.25;0.25;;;;;;;;;;4881039;29;20033;-67
2024/03/08 03:03:58;;;;;;;0.60;0.60;;;;;;;;;;4880785;29;20033;-67
2024/03/08 03:06:23;;;;;;;0.40;0.40;;;;;;;;;;4880457;29;20056;-67
2024/03/08 03:08:48;;;;;;;0.10;0.10;;;;;;;;;;4880883;29;20435;-67
2024/03/08 03:11:14;;;;;;;0.87;0.63;;;;;;;;;;4880646;29;20108;-67
2024/03/08 03:13:39;;;;;;;0.60;0.60;;;;;;;;;;4880704;29;20043;-67
2024/03/08 03:16:04;;;;;;;1.15;0.43;;;;;;;;;;4880610;29;20482;-67
2024/03/08 03:18:30;;;;;;;0.40;0.40;;;;;;;;;;4880675;29;20450;-67
2024/03/08 03:20:56;;;;;;;0.17;0.17;;;;;;;;;;4880700;29;20028;-67
2024/03/08 03:23:21;;;;;;;0.98;0.88;;;;;;;;;;4880594;29;20033;-67
2024/03/08 03:25:46;;;;;;;0.30;0.30;;;;;;;;;;4880536;29;20052;-67
2024/03/08 03:28:14;;;;;;;0.90;0.90;;;;;;;;;;4880319;29;20474;-67
2024/03/08 03:30:39;;;;;;;0.17;0.17;;;;;;;;;;4880832;29;20033;-66
2024/03/08 03:33:07;;;;;;;0.13;0.13;;;;;;;;;;4880966;29;20021;-66
2024/03/08 03:35:34;;;;;;;1.35;0.60;;;;;;;;;;4880746;29;20071;-67
2024/03/08 03:38:17;;;;;;;0.22;0.22;;;;;;;;;;4880735;29;20020;-66
2024/03/08 03:40:42;;;;;;;0.95;0.52;;;;;;;;;;4880934;29;20025;-67
2024/03/08 03:43:09;;;;;;;1.33;1.00;;;;;;;;;;4880634;29;20496;-67
2024/03/08 03:45:34;;;;;;;0.25;0.25;;;;;;;;;;4880079;29;20032;-67
2024/03/08 03:48:02;;;;;;;0.30;0.30;;;;;;;;;;4880166;29;20021;-67
2024/03/08 03:50:27;;;;;;;0.38;0.38;;;;;;;;;;4879941;29;20763;-66
2024/03/08 03:52:52;;;;;;;0.20;0.20;;;;;;;;;;4880057;29;20103;-67
2024/03/08 03:55:19;;;;;;;0.93;0.83;;;;;;;;;;4880188;29;20260;-67
2024/03/08 03:57:45;;;;;;;0.45;0.45;;;;;;;;;;4880121;29;20025;-66
2024/03/08 04:00:19;;;;;;;0.32;0.32;;;;;;;;;;4880112;29;20053;-66
2024/03/08 04:02:44;;;;;;;0.20;0.20;;;;;;;;;;4879717;29;20394;-67
2024/03/08 04:05:10;;;;;;;0.63;0.63;;;;;;;;;;4880197;29;20021;-67
2024/03/08 04:07:42;;;;;;;0.35;0.30;;;;;;;;;;4878934;29;20045;-66
2024/03/08 04:10:08;;;;;;;1.25;1.15;;;;;;;;;;4879826;29;20379;-66
2024/03/08 04:12:34;;;;;;;0.45;0.45;;;;;;;;;;4879425;29;20021;-67
2024/03/08 04:14:59;;;;;;;0.22;0.22;;;;;;;;;;4879732;29;20017;-67
2024/03/08 04:17:24;;;;;;;0.20;0.20;;;;;;;;;;4879483;29;20025;-67
2024/03/08 04:19:50;;;;;;;0.30;0.30;;;;;;;;;;4879677;29;20037;-66
2024/03/08 04:22:16;;;;;;;0.30;0.30;;;;;;;;;;4879434;29;20268;-67
2024/03/08 04:24:41;;;;;;;0.57;0.57;;;;;;;;;;4879469;29;20029;-67
2024/03/08 04:27:07;;;;;;;0.55;0.55;;;;;;;;;;4879463;29;20481;-67
2024/03/08 04:29:32;;;;;;;2.23;1.20;;;;;;;;;;4879465;29;20029;-67
2024/03/08 04:31:58;;;;;;;0.10;0.10;;;;;;;;;;4879369;29;20404;-67
2024/03/08 04:34:23;;;;;;;0.60;0.60;;;;;;;;;;4879092;29;20032;-67
2024/03/08 04:36:49;;;;;;;0.10;0.10;;;;;;;;;;4879634;29;20024;-67
2024/03/08 04:39:15;;;;;;;1.42;1.35;;;;;;;;;;4879510;29;20553;-67
2024/03/08 04:41:40;;;;;;;0.10;0.10;;;;;;;;;;4878998;29;20041;-67
2024/03/08 04:44:06;;;;;;;0.20;0.20;;;;;;;;;;4879356;29;20021;-66
2024/03/08 04:46:31;;;;;;;0.10;0.10;;;;;;;;;;4879287;29;20025;-67
2024/03/08 04:48:56;;;;;;;0.10;0.10;;;;;;;;;;4878950;29;20280;-67
2024/03/08 04:51:22;;;;;;;0.10;0.10;;;;;;;;;;4879117;29;20299;-66
2024/03/08 04:53:47;;;;;;;0.17;0.17;;;;;;;;;;4879358;29;20108;-68
2024/03/08 04:56:12;;;;;;;0.20;0.20;;;;;;;;;;4879347;29;20032;-66
2024/03/08 04:58:38;;;;;;;1.33;0.83;;;;;;;;;;4879460;29;20029;-67
2024/03/08 05:01:03;;;;;;;0.47;0.47;;;;;;;;;;4879082;29;20264;-67
2024/03/08 05:03:30;;;;;;;0.60;0.47;;;;;;;;;;4879273;29;20057;-67
2024/03/08 05:06:01;;;;;;;0.55;0.47;;;;;;;;;;4878584;29;20112;-67
2024/03/08 05:08:26;;;;;;;0.10;0.10;;;;;;;;;;4878911;29;20428;-66
2024/03/08 05:10:52;;;;;;;0.93;0.73;;;;;;;;;;4878793;29;20073;-67
2024/03/08 05:13:18;;;;;;;0.20;0.20;;;;;;;;;;4879147;29;20779;-67
2024/03/08 05:15:44;;;;;;;0.17;0.17;;;;;;;;;;4878911;29;20016;-67
2024/03/08 05:18:11;;;;;;;0.10;0.10;;;;;;;;;;4873427;29;20407;-67
2024/03/08 05:20:37;;;;;;;0.28;0.28;;;;;;;;;;4879663;29;20029;-67
2024/03/08 05:23:03;;;;;;;0.40;0.40;;;;;;;;;;4882690;29;20108;-67
2024/03/08 05:25:28;;;;;;;0.28;0.28;;;;;;;;;;4882761;29;20508;-67
2024/03/08 05:27:53;;;;;;;0.33;0.33;;;;;;;;;;4882695;29;20025;-67
2024/03/08 05:30:21;;;;;;;0.10;0.10;;;;;;;;;;4882389;29;20032;-67
2024/03/08 05:32:46;;;;;;;0.57;0.57;;;;;;;;;;4883141;29;20021;-67
2024/03/08 05:35:12;;;;;;;0.63;0.63;;;;;;;;;;4882951;29;20025;-67
2024/03/08 05:37:37;;;;;;;0.28;0.28;;;;;;;;;;4882791;29;20494;-66
2024/03/08 05:40:08;;;;;;;0.10;0.10;;;;;;;;;;4882812;29;20032;-67
2024/03/08 05:42:33;;;;;;;0.13;0.13;;;;;;;;;;4883055;29;20105;-67
2024/03/08 05:44:59;;;;;;;0.20;0.20;;;;;;;;;;4882497;29;20470;-67
2024/03/08 05:47:24;;;;;;;1.83;1.43;;;;;;;;;;4882391;29;20032;-67
2024/03/08 05:49:49;;;;;;;0.43;0.43;;;;;;;;;;4882519;29;20040;-67
2024/03/08 05:52:15;;;;;;;0.10;0.10;;;;;;;;;;4882009;29;20072;-67
2024/03/08 05:54:40;;;;;;;0.28;0.28;;;;;;;;;;4882414;29;20028;-67
2024/03/08 05:57:06;;;;;;;1.55;1.10;;;;;;;;;;4882107;29;20029;-67
2024/03/08 05:59:31;;;;;;;0.10;0.10;;;;;;;;;;4881912;29;20036;-67
2024/03/08 06:01:57;;;;;;;0.37;0.37;;;;;;;;;;4882036;29;20044;-67
2024/03/08 06:04:22;;;;;;;0.10;0.10;;;;;;;;;;4881785;29;20263;-67
2024/03/08 06:06:48;;;;;;;0.10;0.10;;;;;;;;;;4881632;29;20055;-67
2024/03/08 06:09:17;;;;;;;0.10;0.10;;;;;;;;;;4881864;29;20290;-67
2024/03/08 06:11:42;;;;;;;0.17;0.17;;;;;;;;;;4881028;29;20065;-67
2024/03/08 06:14:07;;;;;;;0.10;0.10;;;;;;;;;;4878447;29;20052;-67
2024/03/08 06:16:33;;;;;;;0.70;0.70;;;;;;;;;;4881585;29;20022;-67
2024/03/08 06:18:58;;;;;;;0.10;0.10;;;;;;;;;;4881514;29;20405;-67
2024/03/08 06:21:25;;;;;;;0.53;0.53;;;;;;;;;;4881740;29;20025;-67
2024/03/08 06:23:51;;;;;;;0.10;0.10;;;;;;;;;;4881766;29;20654;-67
2024/03/08 06:26:16;;;;;;;0.10;0.10;;;;;;;;;;4881653;29;20024;-66
2024/03/08 06:28:41;;;;;;;0.10;0.10;;;;;;;;;;4881524;29;20398;-66
2024/03/08 06:31:07;;;;;;;0.87;0.87;;;;;;;;;;4881140;29;20066;-66
2024/03/08 06:33:33;;;;;;;0.20;0.20;;;;;;;;;;4881391;29;20264;-67
2024/03/08 06:35:58;;;;;;;0.10;0.10;;;;;;;;;;4881333;29;20029;-66
2024/03/08 06:38:24;;;;;;;0.10;0.10;;;;;;;;;;4881455;29;20097;-66
2024/03/08 06:40:51;;;;;;;0.43;0.43;;;;;;;;;;4881529;29;20041;-66
2024/03/08 06:43:16;;;;;;;0.10;0.10;;;;;;;;;;4881492;29;20508;-66
2024/03/08 06:45:42;;;;;;;3.33;0.80;;;;;;;;;;4881024;29;20037;-66
2024/03/08 06:48:09;;;;;;;0.20;0.20;;;;;;;;;;4881190;29;20260;-66
2024/03/08 06:50:36;;;;;;;0.98;0.95;;;;;;;;;;4881291;29;20389;-66
2024/03/08 06:53:01;;;;;;;0.30;0.30;;;;;;;;;;4881162;29;20085;-66
2024/03/08 06:55:26;;;;;;;0.10;0.10;;;;;;;;;;4881200;29;20033;-66
2024/03/08 06:57:51;;;;;;;0.40;0.40;;;;;;;;;;4881107;29;20025;-67
2024/03/08 07:00:18;;;;;;;0.30;0.30;;;;;;;;;;4879157;29;20553;-67
2024/03/08 07:02:48;;;;;;;0.10;0.10;;;;;;;;;;4878388;29;20033;-67
2024/03/08 07:05:13;;;;;;;0.65;0.65;;;;;;;;;;4881596;29;20371;-67
2024/03/08 07:07:41;;;;;;;0.30;0.30;;;;;;;;;;4880294;29;20123;-67
2024/03/08 07:10:10;;;;;;;0.17;0.17;;;;;;;;;;4881130;29;20033;-66
2024/03/08 07:12:36;;;;;;;0.20;0.20;;;;;;;;;;4877738;29;20051;-66
2024/03/08 07:15:01;;;;;;;0.95;0.95;;;;;;;;;;4880148;29;20466;-66
2024/03/08 07:17:26;;;;;;;0.60;0.57;;;;;;;;;;4881000;29;20053;-66
2024/03/08 07:19:51;;;;;;;0.70;0.70;;;;;;;;;;4881059;29;20287;-66
2024/03/08 07:22:17;;;;;;;0.83;0.60;;;;;;;;;;4880977;29;20116;-66
2024/03/08 07:27:19;;;;;;;1.70;0.93;;;;;;;;;;4877795;29;20104;-66
2024/03/08 07:29:45;;;;;;;0.63;0.63;;;;;;;;;;4880632;29;20104;-66
2024/03/08 07:32:24;;;;;;;0.77;0.77;;;;;;;;;;4881045;29;20722;-66
2024/03/08 07:34:50;;;;;;;1.13;1.05;;;;;;;;;;4878830;29;20072;-66
2024/03/08 07:37:15;;;;;;;0.10;0.10;;;;;;;;;;4879052;29;20021;-66
2024/03/08 07:39:41;;;;;;;1.05;1.05;;;;;;;;;;4880165;29;20062;-66
2024/03/08 07:42:06;;;;;;;0.30;0.30;;;;;;;;;;4879452;29;20096;-67
2024/03/08 07:44:32;;;;;;;0.20;0.20;;;;;;;;;;4880242;29;20271;-67
2024/03/08 07:46:57;;;;;;;0.93;0.82;;;;;;;;;;4880232;29;20071;-67
2024/03/08 07:49:22;;;;;;;1.55;1.15;;;;;;;;;;4878905;29;20062;-67
2024/03/08 07:51:49;;;;;;;2.43;1.00;;;;;;;;;;4880246;29;20027;-67
2024/03/08 07:54:14;;;;;;;1.77;1.65;;;;;;;;;;4880167;29;20027;-66
2024/03/08 07:56:39;;;;;;;0.25;0.25;;;;;;;;;;4880129;29;20103;-67
2024/03/08 07:59:04;;;;;;;0.83;0.83;;;;;;;;;;4880116;29;20021;-67
2024/03/08 08:01:30;;;;;;;3.35;0.90;;;;;;;;;;4879946;29;20029;-66
2024/03/08 08:03:56;;;;;;;0.82;0.82;;;;;;;;;;4879943;29;20040;-67
2024/03/08 08:06:21;;;;;;;2.00;1.25;;;;;;;;;;4879611;29;20476;-67
2024/03/08 08:08:46;;;;;;;0.63;0.63;;;;;;;;;;4878289;29;20037;-67
2024/03/08 08:11:12;;;;;;;0.30;0.30;;;;;;;;;;4877313;29;20338;-66
2024/03/08 08:13:37;;;;;;;0.40;0.40;;;;;;;;;;4879863;29;20036;-67
2024/03/08 08:16:03;;;;;;;0.85;0.85;;;;;;;;;;4879574;29;20029;-67
2024/03/08 08:18:29;;;;;;;0.45;0.45;;;;;;;;;;4879667;29;20021;-67
2024/03/08 08:20:55;;;;;;;0.32;0.32;;;;;;;;;;4875652;29;20112;-67
2024/03/08 08:23:20;;;;;;;0.52;0.45;;;;;;;;;;4879261;29;20032;-67
2024/03/08 08:25:45;;;;;;;1.55;0.95;;;;;;;;;;4879500;29;20021;-66
2024/03/08 08:28:12;;;;;;;1.00;0.70;;;;;;;;;;4879510;29;20036;-66
2024/03/08 08:30:38;;;;;;;1.30;1.13;;;;;;;;;;4879313;29;20462;-66
2024/03/08 08:33:05;;;;;;;2.47;2.28;;;;;;;;;;4879206;29;20029;-66
2024/03/08 08:35:30;;;;;;;0.60;0.60;;;;;;;;;;4879726;29;20029;-67
2024/03/08 08:37:55;;;;;;;1.75;1.55;;;;;;;;;;4879204;29;20439;-67
2024/03/08 08:40:22;;;;;;;0.25;0.25;;;;;;;;;;4879249;29;20037;-67
2024/03/08 08:42:48;;;;;;;0.22;0.22;;;;;;;;;;4879298;29;20393;-67
2024/03/08 08:45:13;;;;;;;1.55;1.38;;;;;;;;;;4879569;29;20104;-67
2024/03/08 08:47:41;;;;;;;0.95;0.95;;;;;;;;;;4878914;29;20375;-67
2024/03/08 08:50:07;;;;;;;1.33;1.23;;;;;;;;;;4879046;29;20078;-67
2024/03/08 08:52:32;;;;;;;0.35;0.35;;;;;;;;;;4879251;29;20031;-67
2024/03/08 08:54:57;;;;;;;0.67;0.50;;;;;;;;;;4879139;29;20017;-67
2024/03/08 08:57:22;;;;;;;0.20;0.20;;;;;;;;;;4878848;29;20256;-67
2024/03/08 08:59:48;;;;;;;0.33;0.33;;;;;;;;;;4879041;29;20371;-67
2024/03/08 09:02:16;;;;;;;0.90;0.68;;;;;;;;;;4878737;29;20025;-67
2024/03/08 09:04:41;;;;;;;0.47;0.47;;;;;;;;;;4878520;29;20086;-67
2024/03/08 09:07:07;;;;;;;0.50;0.50;;;;;;;;;;4878326;29;20057;-67
2024/03/08 09:09:32;;;;;;;0.75;0.75;;;;;;;;;;4874745;29;20025;-67
2024/03/08 09:11:57;;;;;;;2.78;1.10;;;;;;;;;;4879034;29;20021;-66
2024/03/08 09:14:23;;;;;;;0.47;0.43;;;;;;;;;;4879108;29;20052;-67
2024/03/08 09:16:48;;;;;;;1.17;0.77;;;;;;;;;;4879050;29;20027;-67
2024/03/08 09:19:13;;;;;;;1.13;0.93;;;;;;;;;;4879070;29;20029;-67
2024/03/08 09:21:40;;;;;;;0.70;0.70;;;;;;;;;;4878670;29;20036;-67
2024/03/08 09:24:06;;;;;;;1.08;0.50;;;;;;;;;;4878351;29;20028;-67
2024/03/08 09:26:33;;;;;;;0.88;0.88;;;;;;;;;;4879189;29;20092;-67
2024/03/08 09:28:58;;;;;;;0.43;0.43;;;;;;;;;;4878987;29;20435;-66
2024/03/08 09:31:23;;;;;;;0.93;0.93;;;;;;;;;;4861991;29;20108;-67
2024/03/08 09:33:48;;;;;;;0.20;0.20;;;;;;;;;;4878841;29;20069;-66
2024/03/08 09:36:14;;;;;;;0.70;0.70;;;;;;;;;;4878844;29;20271;-67
2024/03/08 09:38:39;;;;;;;0.47;0.47;;;;;;;;;;4878917;29;20069;-66
2024/03/08 09:41:05;;;;;;;1.17;1.00;;;;;;;;;;4878802;29;20271;-67
2024/03/08 09:43:32;;;;;;;0.30;0.30;;;;;;;;;;4878990;29;20488;-67
2024/03/08 09:45:58;;;;;;;0.40;0.40;;;;;;;;;;4877674;29;20035;-67
2024/03/08 09:48:23;;;;;;;0.63;0.52;;;;;;;;;;4878664;29;20491;-66
2024/03/08 09:50:49;;;;;;;0.73;0.73;;;;;;;;;;4878507;29;20033;-67
2024/03/08 09:53:14;;;;;;;2.00;0.70;;;;;;;;;;4878849;29;20557;-67
2024/03/08 09:55:44;;;;;;;0.70;0.70;;;;;;;;;;4878594;29;20028;-67
2024/03/08 09:58:30;;;;;;;0.32;0.32;;;;;;;;;;4878758;29;20474;-67
2024/03/08 10:00:57;;;;;;;1.00;0.95;;;;;;;;;;4878196;29;20027;-67
2024/03/08 10:03:23;;;;;;;0.70;0.70;;;;;;;;;;4878681;29;20033;-67
2024/03/08 10:05:48;;;;;;;0.28;0.28;;;;;;;;;;4879735;29;20363;-67
2024/03/08 10:08:13;;;;;;;0.13;0.13;;;;;;;;;;4881771;29;20097;-67
2024/03/08 10:10:39;;;;;;;1.70;0.88;;;;;;;;;;4881832;29;20478;-67
2024/03/08 10:13:07;;;;;;;0.35;0.35;;;;;;;;;;4881820;29;20021;-66
2024/03/08 10:15:33;;;;;;;0.20;0.20;;;;;;;;;;4881846;29;20061;-67
2024/03/08 10:17:58;;;;;;;0.10;0.10;;;;;;;;;;4881739;29;20101;-67
2024/03/08 10:20:24;;;;;;;3.50;1.63;;;;;;;;;;4881696;29;20150;-67
2024/03/08 10:22:49;;;;;;;0.47;0.47;;;;;;;;;;4881666;29;20025;-67
2024/03/08 10:25:14;;;;;;;0.20;0.20;;;;;;;;;;4881467;29;20035;-67
2024/03/08 10:27:40;;;;;;;0.73;0.73;;;;;;;;;;4881499;29;20363;-67
2024/03/08 10:30:06;;;;;;;0.57;0.57;;;;;;;;;;4881744;29;20036;-67
2024/03/08 10:32:31;;;;;;;1.10;0.85;;;;;;;;;;4881212;29;20107;-67
2024/03/08 10:34:57;;;;;;;0.20;0.20;;;;;;;;;;4881362;29;20025;-66
2024/03/08 10:37:23;;;;;;;0.55;0.55;;;;;;;;;;4881241;29;20025;-67
2024/03/08 10:40:15;;;;;;;0.10;0.10;;;;;;;;;;4881417;29;20028;-67
2024/03/08 10:42:44;;;;;;;0.52;0.52;;;;;;;;;;4881447;29;20033;-67
2024/03/08 10:45:14;;;;;;;0.63;0.63;;;;;;;;;;4881233;29;20439;-67
2024/03/08 10:47:41;;;;;;;2.83;1.63;;;;;;;;;;4881029;29;20028;-67
2024/03/08 10:50:22;;;;;;;0.90;0.82;;;;;;;;;;4881187;29;20057;-68
2024/03/08 10:52:50;;;;;;;0.65;0.65;;;;;;;;;;4881323;29;20432;-67
2024/03/08 10:55:17;;;;;;;0.47;0.47;;;;;;;;;;4874110;29;20439;-67
2024/03/08 10:57:43;;;;;;;0.25;0.25;;;;;;;;;;4880093;29;20028;-67
2024/03/08 11:00:11;;;;;;;1.75;0.85;;;;;;;;;;4881407;29;20029;-66
2024/03/08 11:02:37;;;;;;;0.55;0.55;;;;;;;;;;4880888;29;20059;-67
2024/03/08 11:05:03;;;;;;;1.00;0.90;;;;;;;;;;4881214;29;20501;-67
2024/03/08 11:07:33;;;;;;;0.40;0.40;;;;;;;;;;4880514;29;20088;-66
2024/03/08 11:09:58;;;;;;;0.82;0.82;;;;;;;;;;4880667;29;20487;-66
2024/03/08 11:12:30;;;;;;;0.43;0.43;;;;;;;;;;4881308;29;20435;-67
2024/03/08 11:14:56;;;;;;;0.35;0.35;;;;;;;;;;4881414;29;20509;-67
2024/03/08 11:17:25;;;;;;;0.30;0.30;;;;;;;;;;4880078;29;20497;-67
2024/03/08 11:19:52;;;;;;;0.40;0.40;;;;;;;;;;4880730;29;20029;-67
2024/03/08 11:22:23;;;;;;;0.65;0.65;;;;;;;;;;4880768;29;20029;-66
2024/03/08 11:24:48;;;;;;;1.02;0.55;;;;;;;;;;4880532;29;20479;-67
2024/03/08 11:27:14;;;;;;;0.30;0.30;;;;;;;;;;4880822;29;20036;-66
2024/03/08 11:29:39;;;;;;;0.10;0.10;;;;;;;;;;4880371;29;20025;-66
2024/03/08 11:32:12;;;;;;;0.97;0.53;;;;;;;;;;4880237;29;20017;-67
2024/03/08 11:34:39;;;;;;;0.95;0.88;;;;;;;;;;4880674;29;20058;-66
2024/03/08 11:37:05;;;;;;;0.10;0.10;;;;;;;;;;4880106;29;20021;-67
2024/03/08 11:39:31;;;;;;;0.40;0.40;;;;;;;;;;4871536;29;20109;-67
2024/03/08 11:41:56;;;;;;;0.75;0.75;;;;;;;;;;4879937;29;20056;-66
2024/03/08 11:44:27;;;;;;;1.58;0.93;;;;;;;;;;4852242;29;20490;-66
2024/03/08 11:46:52;;;;;;;0.08;0.08;;;;;;;;;;4869079;29;20541;-67
2024/03/08 11:49:18;;;;;;;0.63;0.63;;;;;;;;;;4879720;29;20036;-67
2024/03/08 11:51:43;;;;;;;0.47;0.47;;;;;;;;;;4879444;29;20394;-67
2024/03/08 11:54:15;;;;;;;0.10;0.10;;;;;;;;;;4881645;29;20098;-67
2024/03/08 11:56:41;;;;;;;0.70;0.70;;;;;;;;;;4867132;29;20026;-67
2024/03/08 11:59:12;;;;;;;0.25;0.25;;;;;;;;;;4892314;29;20047;-67
2024/03/08 12:01:37;;;;;;;0.68;0.55;;;;;;;;;;4890133;29;20025;-68
2024/03/08 12:04:05;;;;;;;0.80;0.80;;;;;;;;;;4878933;29;20078;-75
2024/03/08 12:06:40;;;;;;;0.30;0.30;;;;;;;;;;4878864;29;20800;-74
2024/03/08 12:09:10;;;;;;;0.22;0.22;;;;;;;;;;4859709;29;20387;-74
2024/03/08 12:11:35;;;;;;;0.20;0.20;;;;;;;;;;4860091;29;20023;-74
2024/03/08 12:14:01;;;;;;;0.40;0.40;;;;;;;;;;4858105;29;20108;-74
2024/03/08 12:16:27;;;;;;;0.65;0.65;;;;;;;;;;4860746;29;20028;-73
2024/03/08 12:18:53;;;;;;;0.43;0.43;;;;;;;;;;4861131;29;20690;-74
2024/03/08 12:21:23;;;;;;;1.40;1.10;;;;;;;;;;4860960;29;20034;-73
2024/03/08 12:24:02;;;;;;;0.28;0.28;;;;;;;;;;4860247;29;20033;-74
2024/03/08 12:26:28;;;;;;;0.98;0.95;;;;;;;;;;4860568;29;20490;-72
2024/03/08 12:28:53;;;;;;;1.10;0.68;;;;;;;;;;4859016;29;20033;-74
2024/03/08 12:31:21;;;;;;;0.32;0.32;;;;;;;;;;4860345;29;20021;-74
2024/03/08 12:33:50;;;;;;;0.32;0.32;;;;;;;;;;4860082;29;20033;-74
2024/03/08 12:36:16;;;;;;;1.45;0.82;;;;;;;;;;4859403;29;20478;-74
2024/03/08 12:38:47;;;;;;;0.73;0.65;;;;;;;;;;4859922;29;20036;-74
2024/03/08 12:41:22;;;;;;;2.03;1.80;;;;;;;;;;4860907;29;20048;-74
2024/03/08 12:43:50;;;;;;;1.63;1.10;;;;;;;;;;4859971;29;20371;-74
2024/03/08 12:46:16;;;;;;;0.88;0.85;;;;;;;;;;4860427;29;20112;-74
2024/03/08 12:48:44;;;;;;;0.22;0.17;;;;;;;;;;4860127;29;20319;-74
2024/03/08 12:51:10;;;;;;;0.10;0.10;;;;;;;;;;4859123;29;20022;-73
2024/03/08 12:53:35;;;;;;;0.25;0.25;;;;;;;;;;4858796;29;20065;-73
2024/03/08 12:56:00;;;;;;;0.30;0.30;;;;;;;;;;4860505;29;20475;-74
2024/03/08 12:58:26;;;;;;;0.20;0.20;;;;;;;;;;4860581;29;20055;-72
2024/03/08 13:00:51;;;;;;;0.28;0.28;;;;;;;;;;4860384;29;20030;-74
2024/03/08 13:03:16;;;;;;;0.57;0.57;;;;;;;;;;4860269;29;20397;-74
2024/03/08 13:05:42;;;;;;;10.45;1.23;;;;;;;;;;4860290;29;20033;-74
2024/03/08 13:08:12;;;;;;;3.53;0.80;;;;;;;;;;4869585;29;20053;-74
2024/03/08 13:10:37;;;;;;;0.50;0.50;;;;;;;;;;4886534;29;20440;-74
2024/03/08 13:13:04;;;;;;;1.80;0.60;;;;;;;;;;4897778;29;20048;-74
2024/03/08 13:15:30;;;;;;;0.10;0.10;;;;;;;;;;4879383;29;20013;-67
2024/03/08 13:17:57;;;;;;;0.20;0.20;;;;;;;;;;4878386;29;20029;-66
2024/03/08 13:20:23;;;;;;;0.77;0.68;;;;;;;;;;4878632;29;20028;-66
2024/03/08 13:22:48;;;;;;;0.10;0.10;;;;;;;;;;4877496;29;20108;-67
2024/03/08 13:25:13;;;;;;;0.22;0.22;;;;;;;;;;4876584;29;20041;-66
2024/03/08 13:27:41;;;;;;;0.83;0.83;;;;;;;;;;4859469;29;20025;-66
2024/03/08 13:30:07;;;;;;;0.70;0.70;;;;;;;;;;4885278;29;20276;-66
2024/03/08 13:32:32;;;;;;;0.63;0.50;;;;;;;;;;4877706;29;20478;-67
2024/03/08 13:34:57;;;;;;;0.20;0.20;;;;;;;;;;4877672;29;20032;-67
2024/03/08 13:37:22;;;;;;;0.20;0.20;;;;;;;;;;4880300;29;20280;-67
2024/03/08 13:39:47;;;;;;;0.20;0.20;;;;;;;;;;4892186;29;20024;-67
2024/03/08 13:42:14;;;;;;;0.73;0.73;;;;;;;;;;4882255;29;20055;-66
2024/03/08 13:44:43;;;;;;;0.30;0.30;;;;;;;;;;4879086;29;20036;-67
2024/03/08 13:47:08;;;;;;;1.35;0.75;;;;;;;;;;4881515;29;20068;-66
2024/03/08 13:49:34;;;;;;;0.73;0.73;;;;;;;;;;4881685;29;20084;-67
2024/03/08 13:51:59;;;;;;;0.32;0.32;;;;;;;;;;4881492;29;20260;-67
2024/03/08 13:54:25;;;;;;;0.88;0.85;;;;;;;;;;4881755;29;20049;-67
2024/03/08 13:56:53;;;;;;;0.22;0.22;;;;;;;;;;4881327;29;20385;-67
2024/03/08 13:59:22;;;;;;;1.42;1.33;;;;;;;;;;4881330;29;20076;-66
2024/03/08 14:01:48;;;;;;;0.17;0.17;;;;;;;;;;4881442;29;20025;-67
2024/03/08 14:04:14;;;;;;;0.25;0.25;;;;;;;;;;4881433;29;20061;-67
2024/03/08 14:06:39;;;;;;;0.20;0.20;;;;;;;;;;4880912;29;20112;-67
2024/03/08 14:09:07;;;;;;;0.40;0.40;;;;;;;;;;4881009;29;20141;-67
2024/03/08 14:11:33;;;;;;;0.05;0.05;;;;;;;;;;4881184;29;20789;-67
2024/03/08 14:13:58;;;;;;;0.70;0.70;;;;;;;;;;4881453;29;20029;-67
2024/03/08 14:16:23;;;;;;;0.30;0.30;;;;;;;;;;4881330;29;20486;-67
2024/03/08 14:18:48;;;;;;;0.40;0.40;;;;;;;;;;4881349;29;20081;-67
2024/03/08 14:21:14;;;;;;;0.10;0.10;;;;;;;;;;4881310;29;20490;-66
2024/03/08 14:23:42;;;;;;;0.20;0.20;;;;;;;;;;4879817;29;20032;-67
2024/03/08 14:26:07;;;;;;;0.30;0.30;;;;;;;;;;4880556;29;20393;-67
2024/03/08 14:28:32;;;;;;;0.20;0.20;;;;;;;;;;4880986;29;20112;-67
2024/03/08 14:30:57;;;;;;;0.33;0.33;;;;;;;;;;4880958;29;20295;-66
2024/03/08 14:33:25;;;;;;;3.33;1.15;;;;;;;;;;4881342;29;20263;-66
2024/03/08 14:35:51;;;;;;;0.28;0.28;;;;;;;;;;4880580;29;20025;-67
2024/03/08 14:38:17;;;;;;;0.08;0.08;;;;;;;;;;4880786;29;20040;-67
2024/03/08 14:40:46;;;;;;;0.08;0.08;;;;;;;;;;4881033;29;20486;-67